Highland Lakes, NJ (07422)

12:53 PM EDT on July 27, 2016 (GMT -0400)
Abricadabra Weather Station | | Change Station

Elev 1417 ft 41.18 °N, 74.47 °W | Updated 8 minutes ago

Clear
Clear
85.5 °F
Feels Like 86 °F
N
4.7
Wind Variable Wind from WNW

Today
High -- | Low -- °F
--% Chance of Precip.
Yesterday
High -- | Low -- °F
Precip. -- in
Pressure 29.96 in
Visibility 10.0 miles
Clouds Clear
Heat Index 86 °F
Dew Point 62 °F
Humidity 45%
Rainfall 0.00 in
Snow Depth Not available.
5:49 AM 8:19 PM
Last Quarter, 41% visible
METAR KFWN 271553Z AUTO 21005KT 10SM CLR 28/17 A2997 RMK AO2 SLP146 T02830172
Pressure 29.96 in
Visibility 10.0 miles
Clouds Clear
Heat Index 86 °F
Dew Point 62 °F
Humidity 45%
Rainfall 0.00 in
Snow Depth Not available.
5:49 AM 8:19 PM
Last Quarter, 41% visible
METAR KFWN 271553Z AUTO 21005KT 10SM CLR 28/17 A2997 RMK AO2 SLP146 T02830172

10-Day Weather Forecast

Almanac

Astronomy

Jul. 27, 2016 Rise Set
Actual Time
Civil Twilight
Nautical Twilight
Astronomical Twilight
Moon
Length of Visible Light
Length of Day
Tomorrow will be .
, % of the Moon is Illuminated

Today's Extremes

State Highs State Lows

Community

WunderPhotos

Upload Photos

1,927,880 photos uploaded!

WunderBlog® & News

Nearby

Air Quality

  Air Quality AQ Index Pollutant
Not available.

Snow Depth

Station Depth Elevation

Earthquake Activity

City Distance Mag. Time & Date
Minimum magnitude displayed is 2.5.

Coastal Water Temperatures

Place Temperature

Stations

Nearby Weather Stations

Station Location Temp. Windchill Dew Point Humidity Wind Precip. Elev Updated Type
                   

Watches & Warnings

There are currently no watches in effect.